createdAt,value
2023-04-26T00:00:46.967Z,4.30
2023-04-26T00:03:17.650Z,4.80
2023-04-26T00:05:47.897Z,4.35
2023-04-26T00:08:18.403Z,4.82
2023-04-26T00:10:48.288Z,4.80
2023-04-26T00:13:18.682Z,4.50
2023-04-26T00:15:48.725Z,4.72
2023-04-26T00:18:19.267Z,4.28
2023-04-26T00:20:49.426Z,3.50
2023-04-26T00:23:19.860Z,3.97
2023-04-26T00:25:49.992Z,3.85
2023-04-26T00:28:20.492Z,4.85
2023-04-26T00:30:52.352Z,4.10
2023-04-26T00:33:22.914Z,4.15
2023-04-26T00:35:53.323Z,4.30
2023-04-26T00:38:23.936Z,4.30
2023-04-26T00:40:54.077Z,4.53
2023-04-26T00:43:24.520Z,4.53
2023-04-26T00:45:54.997Z,5.28
2023-04-26T00:48:25.667Z,6.18
2023-04-26T00:50:55.719Z,6.53
2023-04-26T00:53:26.633Z,6.43
2023-04-26T00:55:57.349Z,5.70
2023-04-26T00:58:28.124Z,5.68
2023-04-26T01:00:58.640Z,5.65
2023-04-26T01:03:29.257Z,6.22
2023-04-26T01:06:00.627Z,5.57
2023-04-26T01:08:30.850Z,5.20
2023-04-26T01:11:01.488Z,5.35
2023-04-26T01:13:33.467Z,6.05
2023-04-26T01:16:04.273Z,5.45
2023-04-26T01:18:34.289Z,5.85
2023-04-26T01:21:06.132Z,6.32
2023-04-26T01:23:36.169Z,5.80
2023-04-26T01:26:07.797Z,7.22
2023-04-26T01:28:37.936Z,8.50
2023-04-26T01:31:08.931Z,7.47
2023-04-26T01:33:39.025Z,8.18
2023-04-26T01:36:12.986Z,8.52
2023-04-26T01:38:42.973Z,8.98
2023-04-26T01:41:13.577Z,9.50
2023-04-26T01:43:43.595Z,10.13
2023-04-26T01:46:14.064Z,10.20
2023-04-26T01:48:44.160Z,9.77
2023-04-26T01:51:14.862Z,10.68
2023-04-26T01:53:44.868Z,10.23
2023-04-26T01:56:15.424Z,9.07
2023-04-26T01:58:45.441Z,10.57
2023-04-26T02:01:15.930Z,9.68
2023-04-26T02:03:47.523Z,10.45
2023-04-26T02:06:18.413Z,9.73
2023-04-26T02:08:48.873Z,8.63
2023-04-26T02:11:19.376Z,9.40
2023-04-26T02:13:49.421Z,9.50
2023-04-26T02:16:23.630Z,8.30
2023-04-26T02:18:54.720Z,7.55
2023-04-26T02:21:25.404Z,8.27
2023-04-26T02:23:55.630Z,7.80
2023-04-26T02:26:28.108Z,7.88
2023-04-26T02:28:59.187Z,7.63
2023-04-26T02:31:30.351Z,7.25
2023-04-26T02:34:00.418Z,7.10
2023-04-26T02:36:31.256Z,7.07
2023-04-26T02:39:02.041Z,6.65
2023-04-26T02:41:34.443Z,6.18
2023-04-26T02:44:04.511Z,6.25
2023-04-26T02:46:35.046Z,6.20
2023-04-26T02:49:05.302Z,6.53
2023-04-26T02:51:35.916Z,6.28
2023-04-26T02:54:07.067Z,6.70
2023-04-26T02:56:37.680Z,5.97
2023-04-26T02:59:08.281Z,6.13
2023-04-26T03:01:38.819Z,6.35
2023-04-26T03:04:09.481Z,5.47
2023-04-26T03:06:40.705Z,5.47
2023-04-26T03:09:10.714Z,5.65
2023-04-26T03:14:33.262Z,5.30
2023-04-26T03:17:04.634Z,4.82
2023-04-26T03:19:35.872Z,5.22
2023-04-26T03:22:07.586Z,5.55
2023-04-26T03:24:37.526Z,4.75
2023-04-26T03:27:07.946Z,4.75
2023-04-26T03:29:38.013Z,5.20
2023-04-26T03:32:09.003Z,6.00
2023-04-26T03:34:38.995Z,4.95
2023-04-26T03:37:09.017Z,5.70
2023-04-26T03:39:41.306Z,6.60
2023-04-26T03:42:12.460Z,5.45
2023-04-26T03:44:43.096Z,5.80
2023-04-26T03:47:13.283Z,4.90
2023-04-26T03:49:44.122Z,5.65
2023-04-26T03:52:14.133Z,5.80
2023-04-26T03:54:44.597Z,5.97
2023-04-26T03:57:14.966Z,5.55
2023-04-26T03:59:45.359Z,6.43
2023-04-26T04:02:15.913Z,6.50
2023-04-26T04:04:46.659Z,6.03
2023-04-26T04:07:17.923Z,5.57
2023-04-26T04:09:48.564Z,6.07
2023-04-26T04:12:18.716Z,6.60
2023-04-26T04:14:49.324Z,6.65
2023-04-26T04:17:19.792Z,6.78
2023-04-26T04:19:50.299Z,6.82
2023-04-26T04:22:20.179Z,5.60
2023-04-26T04:24:50.594Z,5.68
2023-04-26T04:27:22.346Z,6.10
2023-04-26T04:29:52.831Z,5.63
2023-04-26T04:32:24.930Z,5.55
2023-04-26T04:37:26.801Z,6.07
2023-04-26T04:39:57.806Z,5.32
2023-04-26T04:42:30.689Z,6.18
2023-04-26T04:45:01.141Z,6.18
2023-04-26T04:47:32.121Z,5.55
2023-04-26T04:50:03.148Z,5.95
2023-04-26T04:52:34.458Z,5.82
2023-04-26T04:55:06.039Z,5.80
2023-04-26T04:57:39.040Z,5.82
2023-04-26T05:00:11.473Z,5.22
2023-04-26T05:03:04.413Z,5.13
2023-04-26T05:05:35.235Z,5.43
2023-04-26T05:08:08.826Z,5.60
2023-04-26T05:10:39.629Z,5.80
2023-04-26T05:13:09.860Z,5.35
2023-04-26T05:15:41.479Z,5.43
2023-04-26T05:18:11.522Z,5.47
2023-04-26T05:20:42.677Z,5.55
2023-04-26T05:23:12.738Z,5.68
2023-04-26T05:25:43.267Z,6.05
2023-04-26T05:28:43.293Z,5.45
2023-04-26T05:31:27.247Z,5.60
2023-04-26T05:34:20.647Z,5.47
2023-04-26T05:36:56.912Z,5.00
2023-04-26T05:39:27.191Z,5.80
2023-04-26T05:41:57.647Z,5.25
2023-04-26T05:44:28.020Z,6.00
2023-04-26T05:46:58.944Z,5.70
2023-04-26T05:49:29.729Z,6.90
2023-04-26T05:52:04.731Z,6.18
2023-04-26T05:54:34.758Z,5.78
2023-04-26T05:57:05.239Z,5.65
2023-04-26T05:59:38.396Z,5.60
2023-04-26T06:02:09.005Z,5.65
2023-04-26T06:04:39.396Z,5.13
2023-04-26T06:07:13.953Z,5.60
2023-04-26T06:09:44.190Z,5.57
2023-04-26T06:12:14.698Z,5.80
2023-04-26T06:14:47.244Z,6.10
2023-04-26T06:17:22.618Z,5.82
2023-04-26T06:19:53.038Z,5.97
2023-04-26T06:22:23.506Z,5.70
2023-04-26T06:24:53.589Z,5.45
2023-04-26T06:27:24.197Z,5.22
2023-04-26T06:29:54.385Z,5.32
2023-04-26T06:32:26.373Z,5.95
2023-04-26T06:34:57.218Z,5.82
2023-04-26T06:37:29.355Z,5.57
2023-04-26T06:39:59.580Z,5.85
2023-04-26T06:42:30.062Z,6.07
2023-04-26T06:45:25.348Z,5.70
2023-04-26T06:47:58.221Z,6.00
2023-04-26T06:50:28.519Z,5.50
2023-04-26T06:52:59.211Z,5.45
2023-04-26T06:55:29.214Z,5.38
2023-04-26T06:57:59.655Z,6.28
2023-04-26T07:00:30.946Z,5.45
2023-04-26T07:03:01.482Z,5.85
2023-04-26T07:05:31.625Z,6.55
2023-04-26T07:08:02.089Z,7.30
2023-04-26T07:10:33.527Z,7.80
2023-04-26T07:13:05.321Z,6.65
2023-04-26T07:15:37.480Z,7.80
2023-04-26T07:18:07.906Z,7.80
2023-04-26T07:20:37.969Z,7.43
2023-04-26T07:23:08.493Z,8.18
2023-04-26T07:25:38.477Z,7.78
2023-04-26T07:28:09.738Z,8.27
2023-04-26T07:30:39.747Z,9.02
2023-04-26T07:33:09.649Z,7.68
2023-04-26T07:35:40.164Z,6.95
2023-04-26T07:38:10.894Z,6.57
2023-04-26T07:40:41.630Z,6.80
2023-04-26T07:43:11.650Z,7.03
2023-04-26T07:45:42.115Z,7.85
2023-04-26T07:48:12.339Z,7.40
2023-04-26T07:50:42.924Z,7.55
2023-04-26T07:53:12.818Z,7.00
2023-04-26T07:55:43.302Z,8.10
2023-04-26T07:58:15.689Z,9.07
2023-04-26T08:00:46.232Z,9.60
2023-04-26T08:03:22.261Z,11.02
2023-04-26T08:05:53.087Z,10.35
2023-04-26T08:08:29.222Z,9.27
2023-04-26T08:10:59.695Z,9.77
2023-04-26T08:13:29.798Z,9.85
2023-04-26T08:16:00.291Z,9.55
2023-04-26T08:18:30.324Z,9.35
2023-04-26T08:21:00.804Z,9.32
2023-04-26T08:23:30.913Z,8.32
2023-04-26T08:26:01.802Z,8.55
2023-04-26T08:28:31.921Z,8.30
2023-04-26T08:31:02.740Z,10.93
2023-04-26T08:33:34.203Z,9.10
2023-04-26T08:36:06.167Z,13.98
2023-04-26T08:38:36.687Z,10.80
2023-04-26T08:41:08.265Z,10.85
2023-04-26T08:43:40.114Z,8.70
2023-04-26T08:46:17.532Z,10.05
2023-04-26T08:48:56.315Z,12.95
2023-04-26T08:53:59.438Z,8.38
2023-04-26T08:56:29.985Z,8.40
2023-04-26T08:59:02.072Z,7.88
2023-04-26T09:01:34.876Z,8.18
2023-04-26T09:04:05.209Z,8.88
2023-04-26T09:06:36.873Z,7.50
2023-04-26T09:09:10.264Z,10.68
2023-04-26T09:11:58.917Z,9.02
2023-04-26T09:14:29.302Z,10.18
2023-04-26T09:16:59.792Z,12.95
2023-04-26T09:19:45.840Z,13.23
2023-04-26T09:22:16.283Z,8.63
2023-04-26T09:24:55.970Z,9.43
2023-04-26T09:27:38.131Z,14.38
2023-04-26T09:30:10.544Z,12.02
2023-04-26T09:32:57.060Z,11.70
2023-04-26T09:35:45.869Z,9.80
2023-04-26T09:38:18.911Z,10.15
2023-04-26T09:43:23.831Z,17.45
2023-04-26T09:45:56.282Z,16.70
2023-04-26T09:48:31.273Z,13.68
2023-04-26T09:51:02.018Z,14.57
2023-04-26T09:53:42.332Z,14.30
2023-04-26T09:56:12.452Z,14.82
2023-04-26T09:59:02.371Z,17.67
2023-04-26T10:01:32.561Z,14.73
2023-04-26T10:04:03.563Z,13.63
2023-04-26T10:06:34.130Z,14.00
2023-04-26T10:09:06.678Z,16.17
2023-04-26T10:11:40.424Z,13.52
2023-04-26T10:14:11.102Z,13.93
2023-04-26T10:16:42.207Z,14.07
2023-04-26T10:19:13.183Z,15.68
2023-04-26T10:21:45.606Z,13.75
2023-04-26T10:24:17.553Z,14.40
2023-04-26T10:26:58.542Z,16.45
2023-04-26T10:30:00.751Z,18.63
2023-04-26T10:32:30.856Z,17.15
2023-04-26T10:35:15.049Z,18.60
2023-04-26T10:38:11.318Z,17.60
2023-04-26T10:40:42.814Z,24.40
2023-04-26T10:43:20.074Z,22.80
2023-04-26T10:45:51.701Z,35.42
2023-04-26T10:48:32.143Z,20.65
2023-04-26T10:51:02.773Z,15.90
2023-04-26T10:53:34.379Z,13.38
2023-04-26T10:56:05.550Z,13.10
2023-04-26T10:58:37.123Z,10.48
2023-04-26T11:01:07.750Z,9.82
2023-04-26T11:03:38.586Z,10.23
2023-04-26T11:06:16.477Z,10.48
2023-04-26T11:08:47.000Z,11.43
2023-04-26T11:11:20.591Z,11.75
2023-04-26T11:13:50.668Z,11.55
2023-04-26T11:16:21.302Z,12.73
2023-04-26T11:18:51.645Z,11.60
2023-04-26T11:21:23.585Z,12.93
2023-04-26T11:23:57.055Z,14.57
2023-04-26T11:26:36.287Z,15.65
2023-04-26T11:29:10.764Z,14.30
2023-04-26T11:31:41.896Z,14.73
2023-04-26T11:34:14.062Z,15.35
2023-04-26T11:36:47.661Z,15.00
2023-04-26T11:39:17.786Z,15.05
2023-04-26T11:41:48.269Z,16.75
2023-04-26T11:44:22.030Z,17.25
2023-04-26T11:46:52.994Z,15.95
2023-04-26T11:49:23.249Z,16.30
2023-04-26T11:51:53.902Z,14.52
2023-04-26T11:54:35.795Z,14.15
2023-04-26T11:57:19.913Z,13.43
2023-04-26T11:59:49.911Z,12.95
2023-04-26T12:02:21.932Z,13.52
2023-04-26T12:05:00.937Z,12.20
2023-04-26T12:07:40.462Z,11.60
2023-04-26T12:10:25.667Z,10.00
2023-04-26T12:12:58.072Z,10.27
2023-04-26T12:15:34.666Z,10.75
2023-04-26T12:18:13.327Z,10.18
2023-04-26T12:20:45.062Z,11.20
2023-04-26T12:23:17.819Z,10.30
2023-04-26T12:26:00.863Z,9.88
2023-04-26T12:28:31.533Z,8.93
2023-04-26T12:31:02.710Z,8.93
2023-04-26T12:33:34.180Z,10.85
2023-04-26T12:36:12.912Z,11.10
2023-04-26T12:38:43.971Z,10.77
2023-04-26T12:41:13.975Z,9.73
2023-04-26T12:43:44.462Z,9.90
2023-04-26T12:46:14.569Z,9.50
2023-04-26T12:48:45.124Z,6.40
2023-04-26T12:51:15.080Z,6.07
2023-04-26T12:53:45.567Z,5.55
2023-04-26T12:56:17.432Z,4.57
2023-04-26T12:58:51.181Z,4.38
2023-04-26T13:01:21.262Z,3.63
2023-04-26T13:03:52.153Z,3.70
2023-04-26T13:06:22.372Z,2.88
2023-04-26T13:08:53.076Z,3.08
2023-04-26T13:11:23.282Z,2.90
2023-04-26T13:13:53.883Z,2.65
2023-04-26T13:16:23.948Z,2.38
2023-04-26T13:18:55.628Z,2.22
2023-04-26T13:21:25.816Z,2.13
2023-04-26T13:23:56.241Z,2.17
2023-04-26T13:26:27.825Z,2.95
2023-04-26T13:31:28.199Z,2.00
2023-04-26T13:33:58.717Z,2.22
2023-04-26T13:36:29.104Z,2.17
2023-04-26T13:38:59.540Z,2.22
2023-04-26T13:41:34.470Z,2.45
2023-04-26T13:44:06.103Z,2.13
2023-04-26T13:46:36.731Z,2.20
2023-04-26T13:49:08.306Z,2.25
2023-04-26T13:51:38.772Z,2.03
2023-04-26T13:54:09.394Z,2.67
2023-04-26T13:56:39.621Z,2.08
2023-04-26T13:59:10.065Z,1.92
2023-04-26T14:01:41.714Z,2.90
2023-04-26T14:06:42.109Z,2.05
2023-04-26T14:09:13.347Z,2.80
2023-04-26T14:11:43.864Z,2.30
2023-04-26T14:14:15.075Z,2.38
2023-04-26T14:16:45.004Z,2.78
2023-04-26T14:19:18.242Z,2.85
2023-04-26T14:21:48.324Z,3.35
2023-04-26T14:24:18.766Z,3.30
2023-04-26T14:26:48.739Z,3.38
2023-04-26T14:29:19.167Z,3.60
2023-04-26T14:31:49.271Z,4.18
2023-04-26T14:34:19.924Z,4.13
2023-04-26T14:36:50.365Z,4.35
2023-04-26T14:39:23.330Z,4.63
2023-04-26T14:41:56.452Z,4.03
2023-04-26T14:44:27.414Z,3.85
2023-04-26T14:46:57.557Z,4.80
2023-04-26T14:49:28.098Z,3.95
2023-04-26T14:51:58.119Z,3.10
2023-04-26T14:54:28.524Z,3.67
2023-04-26T14:56:59.350Z,3.83
2023-04-26T14:59:29.792Z,3.00
2023-04-26T15:02:00.125Z,3.38
2023-04-26T15:04:31.015Z,4.05
2023-04-26T15:07:01.236Z,3.20
2023-04-26T15:09:31.997Z,3.20
2023-04-26T15:12:03.657Z,4.32
2023-04-26T15:17:03.338Z,4.07
2023-04-26T15:19:33.668Z,4.00
2023-04-26T15:22:04.084Z,4.28
2023-04-26T15:24:38.342Z,4.00
2023-04-26T15:27:08.754Z,3.72
2023-04-26T15:29:38.849Z,4.47
2023-04-26T15:32:09.277Z,4.20
2023-04-26T15:34:44.375Z,4.47
2023-04-26T15:37:14.917Z,4.10
2023-04-26T15:39:45.183Z,4.38
2023-04-26T15:42:15.575Z,4.63
2023-04-26T15:44:45.598Z,4.30
2023-04-26T15:47:16.000Z,4.28
2023-04-26T15:49:46.081Z,3.88
2023-04-26T15:52:18.196Z,3.78
2023-04-26T15:54:48.324Z,3.97
2023-04-26T15:57:18.834Z,4.00
2023-04-26T15:59:48.882Z,4.40
2023-04-26T16:02:19.387Z,4.13
2023-04-26T16:04:49.909Z,4.45
2023-04-26T16:07:20.824Z,4.20
2023-04-26T16:09:50.852Z,4.32
2023-04-26T16:12:21.266Z,4.40
2023-04-26T16:14:52.809Z,4.53
2023-04-26T16:17:23.254Z,4.80
2023-04-26T16:19:53.358Z,4.63
2023-04-26T16:22:23.773Z,4.07
2023-04-26T16:24:53.775Z,4.60
2023-04-26T16:27:24.204Z,4.45
2023-04-26T16:29:55.160Z,5.10
2023-04-26T16:32:27.307Z,4.70
2023-04-26T16:34:57.527Z,4.40
2023-04-26T16:37:28.042Z,4.63
2023-04-26T16:39:58.327Z,4.95
2023-04-26T16:42:31.176Z,4.57
2023-04-26T16:45:01.284Z,4.90
2023-04-26T16:47:31.702Z,4.25
2023-04-26T16:50:01.963Z,4.72
2023-04-26T16:52:33.234Z,4.90
2023-04-26T16:55:03.443Z,4.00
2023-04-26T16:57:34.275Z,4.15
2023-04-26T17:00:06.449Z,4.38
2023-04-26T17:02:37.308Z,4.40
2023-04-26T17:05:08.061Z,3.75
2023-04-26T17:07:38.953Z,3.83
2023-04-26T17:10:09.798Z,4.13
2023-04-26T17:12:40.353Z,3.33
2023-04-26T17:15:10.856Z,3.70
2023-04-26T17:17:41.319Z,3.28
2023-04-26T17:20:14.598Z,3.67
2023-04-26T17:22:45.079Z,3.30
2023-04-26T17:25:15.281Z,3.60
2023-04-26T17:27:45.809Z,2.80
2023-04-26T17:30:16.448Z,2.92
2023-04-26T17:32:47.262Z,2.53
2023-04-26T17:35:18.237Z,2.72
2023-04-26T17:37:50.922Z,2.67
2023-04-26T17:40:22.412Z,2.65
2023-04-26T17:42:52.484Z,2.10
2023-04-26T17:45:23.133Z,2.53
2023-04-26T17:47:53.297Z,2.42
2023-04-26T17:50:25.260Z,2.78
2023-04-26T17:52:55.309Z,2.53
2023-04-26T17:55:25.851Z,3.22
2023-04-26T17:57:55.848Z,2.60
2023-04-26T18:00:26.500Z,2.28
2023-04-26T18:02:58.732Z,2.67
2023-04-26T18:05:29.324Z,2.65
2023-04-26T18:08:00.165Z,2.40
2023-04-26T18:10:30.665Z,2.55
2023-04-26T18:13:00.703Z,2.67
2023-04-26T18:15:30.781Z,2.63
2023-04-26T18:18:01.266Z,2.75
2023-04-26T18:20:31.446Z,2.90
2023-04-26T18:23:01.985Z,2.70
2023-04-26T18:25:32.062Z,2.70
2023-04-26T18:28:02.492Z,2.78
2023-04-26T18:30:32.703Z,3.08
2023-04-26T18:33:03.151Z,2.95
2023-04-26T18:35:33.216Z,3.15
2023-04-26T18:38:03.716Z,3.05
2023-04-26T18:40:33.772Z,2.85
2023-04-26T18:43:03.610Z,2.65
2023-04-26T18:45:34.712Z,2.72
2023-04-26T18:48:04.868Z,2.55
2023-04-26T18:50:35.985Z,2.55
2023-04-26T18:53:06.033Z,2.70
2023-04-26T18:55:36.504Z,2.85
2023-04-26T18:58:06.604Z,2.55
2023-04-26T19:00:37.083Z,2.53
2023-04-26T19:03:07.289Z,2.30
2023-04-26T19:05:38.508Z,2.55
2023-04-26T19:08:08.869Z,2.08
2023-04-26T19:10:39.523Z,1.98
2023-04-26T19:13:09.510Z,2.60
2023-04-26T19:15:40.029Z,1.92
2023-04-26T19:18:10.079Z,2.13
2023-04-26T19:20:41.057Z,1.90
2023-04-26T19:23:11.036Z,1.95
2023-04-26T19:25:41.596Z,2.03
2023-04-26T19:28:11.599Z,2.38
2023-04-26T19:30:42.094Z,2.10
2023-04-26T19:33:12.266Z,2.60
2023-04-26T19:35:42.843Z,2.00
2023-04-26T19:38:13.271Z,1.80
2023-04-26T19:40:45.244Z,2.53
2023-04-26T19:43:15.277Z,2.70
2023-04-26T19:45:46.815Z,2.58
2023-04-26T19:48:17.084Z,2.60
2023-04-26T19:50:48.599Z,2.50
2023-04-26T19:53:18.648Z,2.20
2023-04-26T19:55:49.118Z,2.60
2023-04-26T19:58:19.159Z,2.80
2023-04-26T20:00:49.656Z,2.67
2023-04-26T20:03:19.870Z,3.05
2023-04-26T20:05:50.634Z,3.17
2023-04-26T20:08:20.618Z,3.00
2023-04-26T20:10:51.411Z,2.40
2023-04-26T20:13:21.473Z,2.42
2023-04-26T20:15:51.977Z,2.60
2023-04-26T20:18:22.410Z,2.47
2023-04-26T20:20:53.631Z,3.08
2023-04-26T20:23:23.625Z,2.88
2023-04-26T20:25:54.259Z,2.83
2023-04-26T20:28:25.626Z,2.67
2023-04-26T20:30:56.194Z,2.55
2023-04-26T20:33:26.241Z,2.60
2023-04-26T20:35:56.811Z,3.20
2023-04-26T20:38:27.562Z,2.95
2023-04-26T20:40:59.112Z,3.03
2023-04-26T20:43:29.662Z,3.10
2023-04-26T20:46:00.180Z,2.80
2023-04-26T20:48:29.999Z,2.90
2023-04-26T20:51:02.557Z,3.40
2023-04-26T20:53:33.237Z,3.20
2023-04-26T20:56:03.737Z,3.72
2023-04-26T20:58:33.782Z,4.38
2023-04-26T21:01:07.439Z,4.20
2023-04-26T21:03:38.053Z,4.70
2023-04-26T21:06:08.745Z,4.63
2023-04-26T21:08:38.728Z,4.28
2023-04-26T21:11:09.199Z,5.22
2023-04-26T21:13:39.017Z,6.10
2023-04-26T21:16:09.787Z,6.15
2023-04-26T21:18:39.830Z,5.18
2023-04-26T21:21:10.284Z,5.30
2023-04-26T21:23:40.092Z,5.18
2023-04-26T21:26:10.554Z,5.13
2023-04-26T21:28:40.542Z,5.53
2023-04-26T21:31:11.153Z,4.97
2023-04-26T21:33:41.311Z,4.70
2023-04-26T21:36:12.445Z,4.95
2023-04-26T21:38:42.447Z,4.80
2023-04-26T21:41:12.948Z,4.68
2023-04-26T21:43:42.951Z,4.75
2023-04-26T21:46:13.523Z,4.50
2023-04-26T21:48:43.636Z,4.50
2023-04-26T21:51:14.282Z,4.95
2023-04-26T21:53:44.680Z,5.03
2023-04-26T21:56:15.902Z,4.53
2023-04-26T21:58:45.990Z,5.07
2023-04-26T22:01:17.752Z,4.60
2023-04-26T22:03:50.898Z,4.75
2023-04-26T22:06:21.546Z,4.47
2023-04-26T22:08:51.692Z,4.00
2023-04-26T22:11:22.866Z,4.10
2023-04-26T22:13:53.048Z,4.60
2023-04-26T22:16:23.560Z,4.63
2023-04-26T22:18:53.564Z,4.50
2023-04-26T22:21:24.062Z,4.35
2023-04-26T22:23:54.132Z,4.60
2023-04-26T22:26:24.593Z,4.47
2023-04-26T22:28:54.779Z,3.60
2023-04-26T22:31:25.344Z,4.22
2023-04-26T22:33:55.359Z,4.28
2023-04-26T22:36:25.648Z,4.60
2023-04-26T22:38:56.278Z,4.68
2023-04-26T22:41:26.828Z,9.70
2023-04-26T22:43:57.623Z,5.90
2023-04-26T22:46:27.904Z,5.15
2023-04-26T22:48:58.875Z,4.85
2023-04-26T22:51:30.058Z,5.05
2023-04-26T22:54:00.848Z,4.57
2023-04-26T22:56:31.022Z,4.80
2023-04-26T22:59:01.475Z,4.88
2023-04-26T23:01:32.328Z,4.22
2023-04-26T23:04:02.831Z,4.22
2023-04-26T23:06:34.251Z,4.15
2023-04-26T23:09:04.703Z,3.53
2023-04-26T23:11:34.789Z,3.70
2023-04-26T23:14:06.734Z,3.25
2023-04-26T23:16:39.660Z,3.47
2023-04-26T23:19:10.876Z,3.47
2023-04-26T23:21:41.275Z,3.92
2023-04-26T23:24:11.821Z,4.80
2023-04-26T23:26:41.995Z,7.00
2023-04-26T23:29:12.817Z,6.90
2023-04-26T23:31:43.162Z,6.13
2023-04-26T23:34:13.601Z,5.72
2023-04-26T23:36:43.518Z,4.68
2023-04-26T23:39:15.258Z,4.55
2023-04-26T23:41:46.625Z,4.30
2023-04-26T23:44:17.033Z,4.43
2023-04-26T23:46:47.554Z,3.80
2023-04-26T23:49:18.670Z,4.13
2023-04-26T23:51:49.294Z,3.78
2023-04-26T23:54:20.578Z,3.40
2023-04-26T23:56:50.841Z,3.60
2023-04-26T23:59:21.253Z,4.78
